Time;durP1;ratioP1;P1;durP2;ratioP2;P2;SDS_P1;SDS_P2;PMS_P1;PMS_P2;Temp;Humidity;BMP_temperature;BMP_pressure;BME280_temperature;BME280_humidity;BME280_pressure;Samples;Min_cycle;Max_cycle;Signal;HPM_P1;HPM_P2
2022/03/14 00:00:11;;;;;;;3.70;2.43;;;14.70;93.00;;;15.08;47.57;101306.06;4890305;28;99427;-85
2022/03/14 00:02:39;;;;;;;3.43;2.43;;;14.70;93.10;;;15.02;48.62;101311.63;4861392;28;101133;-86
2022/03/14 00:05:05;;;;;;;3.27;2.67;;;14.60;93.40;;;14.98;46.76;101320.66;4873078;28;98727;-85
2022/03/14 00:07:38;;;;;;;4.63;2.60;;;14.50;93.60;;;14.96;47.25;101322.53;4872675;28;99395;-85
2022/03/14 00:10:06;;;;;;;2.77;2.43;;;14.50;93.70;;;14.92;47.90;101331.56;4880101;28;97547;-84
2022/03/14 00:12:32;;;;;;;3.03;2.70;;;14.50;93.90;;;14.87;48.81;101328.22;4879967;28;104601;-84
2022/03/14 00:15:06;;;;;;;3.40;2.73;;;14.50;94.10;;;14.87;47.99;101330.88;4854387;28;129395;-84
2022/03/14 00:17:32;;;;;;;4.20;3.10;;;14.50;94.00;;;14.88;48.63;101340.56;4893640;28;97518;-83
2022/03/14 00:20:08;;;;;;;3.87;2.97;;;14.50;93.90;;;14.92;46.17;101330.69;4878375;28;99498;-83
2022/03/14 00:22:37;;;;;;;2.63;2.43;;;14.50;93.80;;;14.99;46.06;101322.38;4892262;28;99553;-84
2022/03/14 00:25:05;;;;;;;4.17;3.20;;;14.60;93.90;;;15.00;47.47;101316.13;4865390;28;103429;-84
2022/03/14 00:27:31;;;;;;;2.70;2.50;;;14.60;94.80;;;14.98;50.76;101325.13;4890120;28;98201;-84
2022/03/14 00:29:57;;;;;;;3.00;2.27;;;14.60;95.40;;;14.93;51.90;101333.28;4869300;28;99538;-84
2022/03/14 00:32:24;;;;;;;3.27;2.53;;;14.60;96.30;;;14.81;51.70;101344.44;4880458;28;122596;-83
2022/03/14 00:34:50;;;;;;;2.80;2.50;;;14.50;96.70;;;14.80;50.38;101345.38;4881080;28;97759;-84
2022/03/14 00:37:16;;;;;;;3.60;2.60;;;14.40;97.30;;;14.83;47.71;101353.19;4911130;28;97104;-84
2022/03/14 00:39:42;;;;;;;2.60;2.40;;;14.40;97.10;;;14.79;52.86;101357.78;4899439;28;96965;-84
2022/03/14 00:42:08;;;;;;;3.43;2.93;;;14.40;97.20;;;14.79;50.81;101362.22;4883181;28;97656;-84
2022/03/14 00:44:34;;;;;;;3.00;2.80;;;14.40;96.10;;;14.79;50.10;101363.09;4916627;28;97336;-84
2022/03/14 00:47:00;;;;;;;3.10;2.80;;;14.40;95.70;;;14.82;49.41;101356.78;4911879;28;98110;-84
2022/03/14 00:49:27;;;;;;;3.53;3.00;;;14.40;95.80;;;14.85;49.60;101368.13;4885279;28;98250;-84
2022/03/14 00:51:52;;;;;;;3.80;3.23;;;14.50;95.60;;;14.86;49.59;101369.00;4901946;28;99133;-86
2022/03/14 00:54:18;;;;;;;3.60;3.30;;;14.50;95.30;;;14.86;49.82;101374.31;4914544;28;110142;-83
2022/03/14 00:56:44;;;;;;;3.87;3.23;;;14.50;95.30;;;14.88;48.52;101377.75;4899418;28;123097;-84
2022/03/14 00:59:10;;;;;;;3.37;3.07;;;14.50;95.20;;;14.88;50.27;101378.63;4898227;28;112070;-84
2022/03/14 01:01:36;;;;;;;3.60;3.10;;;14.50;96.00;;;14.92;49.35;101382.03;4904547;28;97632;-83
2022/03/14 01:04:08;;;;;;;3.50;3.20;;;14.60;96.00;;;14.92;48.95;101382.03;4911201;28;98768;-83
2022/03/14 01:06:34;;;;;;;3.90;3.17;;;14.60;96.30;;;14.91;49.65;101388.28;4878756;28;97143;-83
2022/03/14 01:09:00;;;;;;;3.03;2.73;;;14.60;96.40;;;14.93;49.74;101391.72;4882658;28;97141;-83
2022/03/14 01:11:26;;;;;;;2.70;2.50;;;14.60;96.00;;;14.87;50.16;101405.25;4891355;28;98068;-84
2022/03/14 01:13:52;;;;;;;3.23;2.93;;;14.50;95.60;;;14.88;47.95;101396.34;4881900;28;98589;-85
2022/03/14 01:16:18;;;;;;;3.10;2.80;;;14.60;95.40;;;14.88;49.92;101410.50;4908680;28;98429;-84
2022/03/14 01:18:44;;;;;;;3.17;2.53;;;14.60;95.40;;;14.92;48.08;101415.72;4903097;28;96875;-84
2022/03/14 01:21:10;;;;;;;2.90;2.70;;;14.60;95.10;;;14.92;49.53;101421.88;4895033;28;98618;-85
2022/03/14 01:23:39;;;;;;;2.83;2.63;;;14.60;95.00;;;14.97;46.51;101419.88;4902228;28;99601;-84
2022/03/14 01:26:06;;;;;;;3.20;2.90;;;14.70;95.10;;;14.96;49.17;101423.47;4893771;28;97397;-84
2022/03/14 01:28:32;;;;;;;3.47;2.77;;;14.60;95.50;;;14.95;47.02;101427.06;4903731;28;97250;-84
2022/03/14 01:30:58;;;;;;;2.43;2.23;;;14.70;95.30;;;14.95;47.74;101426.19;4883739;28;98542;-85
2022/03/14 01:33:24;;;;;;;2.90;2.70;;;14.70;95.70;;;14.96;49.60;101418.16;4884652;28;97779;-84
2022/03/14 01:35:50;;;;;;;3.37;2.80;;;14.60;96.50;;;14.95;52.76;101423.53;4911537;28;96956;-84
2022/03/14 01:38:18;;;;;;;3.90;2.90;;;14.70;97.50;;;14.90;52.28;101423.75;4897906;28;98120;-85
2022/03/14 01:40:44;;;;;;;3.57;3.20;;;14.60;97.90;;;14.85;52.42;101431.00;4892072;28;108544;-84
2022/03/14 01:43:10;;;;;;;3.80;3.40;;;14.50;97.30;;;14.84;51.33;101437.25;4886167;28;97977;-84
2022/03/14 01:45:36;;;;;;;3.87;3.57;;;14.50;97.30;;;14.85;51.14;101437.19;4897530;28;97240;-85
2022/03/14 01:48:05;;;;;;;3.93;3.20;;;14.50;98.50;;;14.91;51.65;101449.38;4904701;28;97249;-84
2022/03/14 01:50:32;;;;;;;4.70;3.80;;;14.50;99.10;;;14.90;53.96;101447.66;4901674;28;97937;-84
2022/03/14 01:52:57;;;;;;;4.43;3.80;;;14.50;99.20;;;14.92;53.28;101451.09;4879806;28;98569;-84
2022/03/14 01:55:24;;;;;;;5.50;2.83;;;14.50;98.70;;;14.91;46.08;101446.72;4902071;28;105198;-84
2022/03/14 01:57:50;;;;;;;5.60;3.83;;;14.50;98.70;;;14.95;53.65;101453.63;4905416;28;97087;-85
2022/03/14 02:00:16;;;;;;;4.07;3.67;;;14.60;99.90;;;14.98;47.78;101448.19;4901462;28;122942;-84
2022/03/14 02:02:43;;;;;;;4.73;3.80;;;14.60;99.90;;;14.96;52.77;101460.66;4939742;28;97297;-84
2022/03/14 02:05:09;;;;;;;5.10;3.80;;;14.50;99.90;;;14.90;56.67;101455.63;4919440;28;116462;-83
2022/03/14 02:07:39;;;;;;;4.00;3.57;;;14.50;99.90;;;14.90;55.27;101460.94;4930003;28;96907;-83
2022/03/14 02:10:09;;;;;;;4.13;3.70;;;14.40;99.90;;;14.84;50.31;101461.16;4917286;28;99324;-83
2022/03/14 02:12:35;;;;;;;8.13;4.47;;;14.40;99.90;;;14.82;57.02;101463.03;4919251;28;98695;-84
2022/03/14 02:15:01;;;;;;;6.43;4.73;;;14.40;99.90;;;14.83;53.32;101470.06;4899730;28;97269;-84
2022/03/14 02:17:27;;;;;;;6.90;5.30;;;14.40;99.90;;;14.80;53.71;101470.19;4906014;28;97662;-84
2022/03/14 02:19:53;;;;;;;5.40;4.30;;;14.30;99.90;;;14.79;53.26;101471.13;4902312;28;102938;-85
2022/03/14 02:22:20;;;;;;;4.00;3.60;;;14.30;99.90;;;14.78;53.72;101477.38;4915676;28;101903;-84
2022/03/14 02:24:47;;;;;;;2.20;2.00;;;14.30;99.90;;;14.78;47.83;101480.88;4903386;28;97156;-84
2022/03/14 02:27:14;;;;;;;4.47;3.50;;;14.30;99.90;;;14.76;52.49;101481.88;4880127;28;97633;-83
2022/03/14 02:29:41;;;;;;;4.37;3.83;;;14.30;99.90;;;14.79;53.93;101489.72;4913923;28;97801;-83
2022/03/14 02:32:12;;;;;;;8.43;4.13;;;14.30;99.90;;;14.75;54.09;101483.63;4906026;28;99629;-83
2022/03/14 02:34:40;;;;;;;6.13;4.03;;;14.30;99.90;;;14.74;53.46;101503.16;4898992;28;99137;-83
2022/03/14 02:37:06;;;;;;;2.77;2.33;;;14.20;99.90;;;14.70;48.75;101490.06;4905082;28;97657;-83
2022/03/14 02:39:34;;;;;;;3.37;2.40;;;14.20;99.90;;;14.82;46.78;101500.19;4918142;28;97295;-83
2022/03/14 02:42:01;;;;;;;3.70;3.40;;;14.30;99.90;;;14.82;48.10;101500.19;4894289;28;99314;-83
2022/03/14 02:44:28;;;;;;;5.60;3.77;;;14.30;99.90;;;14.78;53.19;101506.56;4901242;28;97149;-83
2022/03/14 02:46:54;;;;;;;6.40;4.30;;;14.30;99.90;;;14.80;54.06;101507.38;4897873;28;97538;-83
2022/03/14 02:49:20;;;;;;;5.63;5.00;;;14.30;99.90;;;14.78;53.95;101514.53;4902170;28;97985;-83
2022/03/14 02:51:47;;;;;;;6.03;4.43;;;14.30;99.90;;;14.73;56.65;101511.19;4899159;28;126230;-83
2022/03/14 02:54:13;;;;;;;8.80;4.83;;;14.30;99.90;;;14.80;48.41;101524.19;4890746;28;97035;-83
2022/03/14 02:56:41;;;;;;;7.77;5.07;;;14.30;99.90;;;14.83;53.59;101517.88;4898640;28;97057;-83
2022/03/14 02:59:08;;;;;;;7.13;5.67;;;14.30;99.90;;;14.77;57.23;101528.75;4913481;28;98490;-84
2022/03/14 03:01:37;;;;;;;3.70;3.27;;;14.30;99.90;;;14.80;46.14;101521.53;4886682;28;98303;-83
2022/03/14 03:04:04;;;;;;;6.27;4.77;;;14.30;99.90;;;14.85;48.27;101518.66;4885071;28;109629;-82
2022/03/14 03:06:32;;;;;;;7.20;5.07;;;14.40;99.90;;;14.86;50.14;101528.38;4897570;28;97847;-83
2022/03/14 03:08:59;;;;;;;2.53;2.10;;;14.30;99.90;;;14.93;45.06;101529.88;4917421;28;98103;-83
2022/03/14 03:11:25;;;;;;;5.37;3.20;;;14.40;98.60;;;14.93;50.64;101542.28;4885926;28;97558;-84
2022/03/14 03:13:54;;;;;;;5.63;4.73;;;14.50;99.90;;;14.85;47.42;101538.13;4923450;28;97472;-83
2022/03/14 03:16:22;;;;;;;7.33;6.10;;;14.40;99.90;;;14.80;56.66;101550.72;4896578;28;99123;-84
2022/03/14 03:18:48;;;;;;;6.67;5.93;;;14.30;99.90;;;14.76;57.72;101558.91;4905203;28;99831;-83
2022/03/14 03:21:16;;;;;;;10.00;6.23;;;14.30;99.90;;;14.65;55.37;101551.31;4902485;28;97600;-84
2022/03/14 03:23:43;;;;;;;6.03;5.13;;;14.10;99.90;;;14.71;52.68;101555.53;4917799;28;96889;-84
2022/03/14 03:26:09;;;;;;;8.70;5.67;;;14.20;99.90;;;14.67;57.31;101559.22;4878479;28;97305;-84
2022/03/14 03:28:35;;;;;;;9.33;5.90;;;14.20;99.90;;;14.58;54.57;101566.63;4901914;28;102279;-84
2022/03/14 03:31:20;;;;;;;4.43;3.27;;;14.10;99.90;;;14.64;47.32;101559.34;4912224;28;97416;-84
2022/03/14 03:33:50;;;;;;;7.50;5.97;;;14.10;99.90;;;14.54;54.94;101572.97;4900496;28;97032;-84
2022/03/14 03:36:15;;;;;;;8.40;6.60;;;14.00;99.90;;;14.44;56.08;101578.66;4917185;28;97550;-84
2022/03/14 03:38:42;;;;;;;8.60;7.10;;;13.90;99.90;;;14.43;57.90;101580.44;4902635;28;127491;-83
2022/03/14 03:41:08;;;;;;;9.20;6.80;;;13.90;99.90;;;14.38;54.74;101582.41;4894796;28;98295;-84
2022/03/14 03:43:34;;;;;;;9.27;6.87;;;13.90;99.90;;;14.25;61.16;101584.63;4914572;28;97684;-84
2022/03/14 03:45:59;;;;;;;9.47;6.37;;;13.80;99.90;;;14.18;61.44;101582.28;4887255;28;97604;-84
2022/03/14 03:48:26;;;;;;;8.17;5.20;;;13.70;99.90;;;14.20;56.36;101588.38;4899207;28;126166;-83
2022/03/14 03:50:52;;;;;;;6.90;6.20;;;13.70;99.90;;;14.19;60.35;101595.47;4903288;28;97604;-85
2022/03/14 03:53:18;;;;;;;7.63;6.20;;;13.70;99.90;;;14.10;60.65;101600.22;4898658;28;98444;-83
2022/03/14 03:55:44;;;;;;;7.83;6.70;;;13.60;99.90;;;14.03;61.51;101601.34;4885311;28;97167;-84
2022/03/14 03:58:11;;;;;;;9.30;7.30;;;13.50;99.90;;;13.91;62.80;101603.53;4916068;28;113278;-83
2022/03/14 04:00:36;;;;;;;8.17;6.93;;;13.50;99.90;;;13.87;62.29;101609.84;4911998;28;97344;-83
2022/03/14 04:03:02;;;;;;;9.33;7.30;;;13.40;99.90;;;13.79;63.60;101611.91;4898430;28;122373;-83
2022/03/14 04:05:30;;;;;;;7.83;7.03;;;13.40;99.90;;;13.76;63.51;101614.66;4917172;28;97405;-83
2022/03/14 04:07:59;;;;;;;8.97;7.33;;;13.40;99.90;;;13.72;61.94;101615.66;4901903;28;98188;-83
2022/03/14 04:10:27;;;;;;;9.93;7.47;;;13.30;99.90;;;13.69;57.69;101621.94;4918537;28;97459;-83
2022/03/14 04:12:53;;;;;;;9.17;7.60;;;13.30;99.90;;;13.74;55.96;101624.44;4900333;28;97097;-84
2022/03/14 04:15:22;;;;;;;9.13;8.10;;;13.30;99.90;;;13.72;62.93;101620.09;4874028;28;97233;-83
2022/03/14 04:17:50;;;;;;;9.67;7.70;;;13.40;99.90;;;13.76;56.86;101624.41;4878644;28;99384;-83
2022/03/14 04:20:17;;;;;;;8.20;7.40;;;13.30;99.90;;;13.77;58.17;101632.31;4902228;28;127215;-83
2022/03/14 04:22:42;;;;;;;9.13;8.17;;;13.40;99.90;;;13.70;63.60;101638.72;4893785;28;98231;-83
2022/03/14 04:25:11;;;;;;;11.17;9.13;;;13.30;99.90;;;13.67;64.23;101649.44;4893110;28;120940;-83
2022/03/14 04:27:37;;;;;;;10.30;9.20;;;13.30;99.90;;;13.62;61.48;101646.06;4886528;28;99010;-83
2022/03/14 04:30:05;;;;;;;12.30;9.50;;;13.20;99.90;;;13.60;64.23;101658.53;4905613;28;101217;-83
2022/03/14 04:32:31;;;;;;;11.90;10.70;;;13.20;99.90;;;13.61;62.52;101654.94;4895675;28;97271;-83
2022/03/14 04:34:57;;;;;;;14.03;11.83;;;13.20;99.90;;;13.64;63.42;101661.00;4880635;28;97456;-84
2022/03/14 04:37:22;;;;;;;12.90;10.93;;;13.20;99.90;;;13.63;62.56;101663.72;4872910;28;100031;-83
2022/03/14 04:39:48;;;;;;;12.03;10.13;;;13.20;99.90;;;13.64;62.59;101660.16;4885044;28;129456;-84
2022/03/14 04:42:17;;;;;;;12.77;10.57;;;13.20;99.90;;;13.64;60.13;101670.75;4875985;28;97775;-83
2022/03/14 04:44:44;;;;;;;13.73;11.67;;;13.20;99.90;;;13.63;64.97;101674.31;4885257;28;98463;-83
2022/03/14 04:47:10;;;;;;;12.43;9.77;;;13.20;99.90;;;13.59;59.90;101672.66;4897909;28;98625;-83
2022/03/14 04:49:36;;;;;;;10.90;9.80;;;13.20;99.90;;;13.52;60.50;101687.91;4879841;28;100250;-83
2022/03/14 04:52:02;;;;;;;10.97;9.87;;;13.10;99.90;;;13.44;64.56;101678.44;4904863;28;97285;-83
2022/03/14 04:54:28;;;;;;;10.90;9.83;;;13.10;99.90;;;13.51;63.36;101680.88;4928456;28;97037;-84
2022/03/14 04:56:54;;;;;;;10.63;9.53;;;13.20;99.90;;;13.51;64.06;101691.47;4921153;28;96610;-85
2022/03/14 04:59:21;;;;;;;11.07;9.57;;;13.20;99.90;;;13.52;63.21;101695.84;4902303;28;97438;-83
2022/03/14 05:01:48;;;;;;;10.17;8.97;;;13.20;99.90;;;13.50;62.27;101694.19;4918935;28;97257;-83
2022/03/14 05:04:14;;;;;;;10.73;9.60;;;13.20;99.90;;;13.47;64.11;101702.22;4916493;28;97007;-84
2022/03/14 05:06:40;;;;;;;10.07;8.80;;;13.20;99.90;;;13.50;62.71;101699.47;4901908;28;98205;-84
2022/03/14 05:09:06;;;;;;;10.80;9.20;;;13.10;99.90;;;13.46;64.53;101709.31;4899270;28;99538;-84
2022/03/14 05:11:35;;;;;;;10.50;9.43;;;13.10;99.90;;;13.50;62.78;101704.78;4883564;28;122595;-84
2022/03/14 05:14:01;;;;;;;10.10;8.90;;;13.10;99.90;;;13.47;63.21;101715.50;4870946;28;97098;-83
2022/03/14 05:16:27;;;;;;;9.37;6.87;;;13.10;99.90;;;13.38;64.07;101722.78;4913435;28;99607;-83
2022/03/14 05:18:52;;;;;;;7.63;6.87;;;13.00;99.90;;;13.36;63.49;101721.97;4883845;28;127643;-84
2022/03/14 05:21:18;;;;;;;7.37;6.50;;;13.00;99.90;;;13.32;64.64;101717.69;4896926;28;96897;-84
2022/03/14 05:23:45;;;;;;;7.80;5.53;;;13.00;99.90;;;13.33;60.44;101724.72;4916525;28;98446;-84
2022/03/14 05:26:11;;;;;;;5.97;5.40;;;13.00;99.90;;;13.32;64.06;101730.94;4887170;28;99115;-84
2022/03/14 05:28:37;;;;;;;6.20;4.90;;;13.00;99.90;;;13.33;63.63;101740.63;4899913;28;128998;-85
2022/03/14 05:31:03;;;;;;;6.97;5.10;;;13.00;99.90;;;13.35;63.49;101732.63;4891141;28;99208;-83
2022/03/14 05:33:29;;;;;;;5.83;4.50;;;13.00;99.90;;;13.32;62.85;101738.03;4901960;28;96881;-82
2022/03/14 05:35:56;;;;;;;5.20;4.43;;;13.00;99.90;;;13.36;61.36;101745.81;4915430;28;99512;-85
2022/03/14 05:38:22;;;;;;;6.37;5.00;;;13.00;99.90;;;13.35;62.85;101751.19;4909977;28;97556;-82
2022/03/14 05:40:49;;;;;;;6.00;4.40;;;12.90;99.90;;;13.31;63.79;101758.34;4915334;28;99306;-81
2022/03/14 05:43:16;;;;;;;5.37;4.83;;;12.90;99.90;;;13.36;60.91;101759.06;4896504;28;97756;-83
2022/03/14 05:45:43;;;;;;;4.73;4.20;;;12.90;99.90;;;13.32;63.29;101765.38;4916976;28;98015;-84
2022/03/14 05:48:08;;;;;;;5.10;4.10;;;12.90;99.90;;;13.34;61.86;101763.56;4887629;28;99675;-84
2022/03/14 05:50:35;;;;;;;5.07;4.13;;;13.00;99.90;;;13.30;63.10;101772.50;4877518;28;97785;-84
2022/03/14 05:53:01;;;;;;;4.70;4.23;;;12.90;99.90;;;13.28;62.41;101763.72;4894044;28;96915;-83
2022/03/14 05:55:27;;;;;;;7.30;3.83;;;12.90;99.90;;;13.28;62.42;101773.44;4920697;28;97904;-83
2022/03/14 05:57:54;;;;;;;5.33;3.80;;;12.90;99.90;;;13.35;54.22;101775.03;4865859;28;97529;-84
2022/03/14 06:00:25;;;;;;;8.70;4.20;;;12.90;99.90;;;13.35;60.16;101775.88;4910151;28;98326;-84
2022/03/14 06:02:52;;;;;;;6.27;3.53;;;13.00;99.90;;;13.30;61.08;101782.22;4904416;28;97904;-84
2022/03/14 06:05:21;;;;;;;6.53;3.87;;;12.90;99.90;;;13.26;62.70;101785.88;4892794;28;104269;-86
2022/03/14 06:07:47;;;;;;;6.17;4.17;;;12.80;99.90;;;13.22;62.74;101787.75;4917075;28;97479;-86
2022/03/14 06:10:15;;;;;;;4.63;3.23;;;12.90;99.90;;;13.19;61.98;101785.19;4903470;28;97289;-86
2022/03/14 06:12:42;;;;;;;4.97;3.53;;;12.80;99.90;;;13.24;62.18;101790.34;4905311;28;96858;-86
2022/03/14 06:15:10;;;;;;;7.97;4.80;;;12.80;99.90;;;13.26;62.02;101794.69;4880815;28;98362;-85
2022/03/14 06:17:36;;;;;;;6.10;3.40;;;12.90;99.90;;;13.27;62.35;101796.44;4904873;28;98036;-86
2022/03/14 06:20:03;;;;;;;6.53;3.90;;;12.90;99.90;;;13.25;62.10;101806.22;4875815;28;123548;-86
2022/03/14 06:22:29;;;;;;;6.07;3.37;;;12.80;99.90;;;13.28;57.87;101806.13;4901324;28;96858;-86
2022/03/14 06:24:59;;;;;;;5.77;3.77;;;12.90;99.90;;;13.26;62.21;101813.25;4892452;28;99922;-86
2022/03/14 06:27:24;;;;;;;7.23;3.23;;;12.80;99.90;;;13.29;57.91;101818.44;4878156;28;98213;-86
2022/03/14 06:29:51;;;;;;;4.90;3.20;;;12.90;99.90;;;13.29;62.05;101820.22;4893947;28;97607;-85
2022/03/14 06:32:17;;;;;;;6.30;4.00;;;12.90;99.90;;;13.31;59.59;101827.25;4894312;28;97061;-86
2022/03/14 06:34:43;;;;;;;4.60;3.30;;;12.90;99.90;;;13.26;61.35;101834.44;4892966;28;97986;-87
2022/03/14 06:37:09;;;;;;;9.70;3.97;;;12.90;99.90;;;13.25;60.58;101830.06;4874923;28;99576;-86
2022/03/14 06:39:36;;;;;;;5.40;3.60;;;12.80;99.90;;;13.30;60.58;101833.44;4901546;28;97331;-87
2022/03/14 06:42:08;;;;;;;5.43;4.00;;;12.80;99.90;;;13.30;60.57;101829.91;4893915;28;97173;-87
2022/03/14 06:44:38;;;;;;;5.57;3.90;;;12.90;99.90;;;13.29;61.43;101834.34;4884680;28;97451;-87
2022/03/14 06:47:09;;;;;;;6.33;4.23;;;12.80;99.90;;;13.28;59.85;101837.03;4911558;28;97444;-86
2022/03/14 06:49:36;;;;;;;6.10;4.43;;;12.80;99.90;;;13.30;62.19;101836.09;4906645;28;97272;-87
2022/03/14 06:52:04;;;;;;;6.53;4.23;;;12.90;99.90;;;13.28;60.24;101843.22;4912715;28;97049;-87
2022/03/14 06:54:30;;;;;;;6.13;4.23;;;12.80;99.90;;;13.26;62.89;101850.34;4901882;28;99162;-87
2022/03/14 06:56:56;;;;;;;4.93;3.87;;;12.90;99.90;;;13.23;61.39;101850.44;4914557;28;97575;-87
2022/03/14 06:59:22;;;;;;;5.87;3.63;;;12.80;99.90;;;13.23;61.78;101844.25;4917041;28;97152;-86
2022/03/14 07:01:48;;;;;;;4.83;3.87;;;12.80;99.90;;;13.23;62.16;101850.44;4900239;28;97264;-86
2022/03/14 07:04:14;;;;;;;6.13;3.57;;;12.80;99.90;;;13.23;61.33;101847.78;4879880;28;127814;-88
2022/03/14 07:06:40;;;;;;;5.97;4.00;;;12.80;99.90;;;13.25;60.86;101856.56;4883978;28;123361;-86
2022/03/14 07:09:07;;;;;;;6.40;3.90;;;12.80;99.90;;;13.25;61.35;101861.84;4913782;28;97216;-87
2022/03/14 07:11:34;;;;;;;6.13;3.80;;;12.80;99.90;;;13.22;62.42;101863.72;4916452;28;97958;-86
2022/03/14 07:14:01;;;;;;;5.60;3.80;;;12.80;99.90;;;13.25;62.79;101868.94;4913258;28;98569;-86
2022/03/14 07:16:27;;;;;;;5.47;4.07;;;12.80;99.90;;;13.28;62.95;101880.31;4917939;28;99050;-86
2022/03/14 07:18:53;;;;;;;5.70;4.40;;;12.90;99.90;;;13.31;62.92;101892.63;4916495;28;97877;-87
2022/03/14 07:21:28;;;;;;;6.80;3.67;;;12.90;99.90;;;13.31;62.43;101882.91;4887080;28;123480;-86
2022/03/14 07:24:33;;;;;;;8.13;4.37;;;12.90;99.90;;;13.30;62.34;101893.53;4867200;28;100689;-86
2022/03/14 07:27:07;;;;;;;7.63;3.43;;;12.90;99.90;;;13.28;60.80;101896.22;4890300;28;100221;-85
2022/03/14 07:29:33;;;;;;;6.83;3.30;;;12.90;99.90;;;13.33;61.85;101907.56;4902769;28;97572;-86
2022/03/14 07:31:59;;;;;;;8.53;3.80;;;12.90;99.90;;;13.32;62.22;101910.28;4897393;28;97392;-86
2022/03/14 07:34:25;;;;;;;7.57;3.97;;;12.90;99.90;;;13.33;62.87;101915.53;4913859;23;97684;-56
2022/03/14 07:36:51;;;;;;;5.37;3.87;;;12.90;99.90;;;13.39;61.74;101915.34;4881517;28;97305;-56
2022/03/14 07:39:16;;;;;;;8.37;4.20;;;13.00;99.90;;;13.39;62.18;101920.66;4877272;28;97088;-56
2022/03/14 07:41:42;;;;;;;6.37;3.80;;;13.00;99.90;;;13.40;61.46;101914.44;4877002;28;97212;-56
2022/03/14 07:44:08;;;;;;;6.63;4.27;;;13.00;99.90;;;13.42;61.39;101918.81;4879824;28;97918;-57
2022/03/14 07:46:34;;;;;;;6.23;3.93;;;13.00;99.90;;;13.38;61.40;101918.91;4881227;28;96704;-56
2022/03/14 07:49:00;;;;;;;10.33;4.30;;;13.00;99.90;;;13.38;62.49;101918.91;4873426;28;96589;-57
2022/03/14 07:51:28;;;;;;;8.43;3.60;;;13.00;99.90;;;13.38;62.09;101923.34;4869424;28;96832;-58
2022/03/14 07:53:55;;;;;;;7.10;3.47;;;13.00;99.90;;;13.39;61.28;101918.00;4875256;28;97202;-59
2022/03/14 07:56:21;;;;;;;7.03;4.13;;;13.00;99.90;;;13.42;61.11;101924.13;4861571;28;97560;-56
2022/03/14 07:58:47;;;;;;;7.53;3.97;;;13.00;99.90;;;13.45;60.73;101924.03;4872246;28;96737;-57
2022/03/14 08:01:13;;;;;;;7.70;3.80;;;13.10;99.90;;;13.46;61.19;101936.41;4857893;28;97304;-54
2022/03/14 08:03:39;;;;;;;8.03;5.17;;;13.10;99.90;;;13.49;61.64;101941.63;4875840;28;97988;-56
2022/03/14 08:06:07;;;;;;;7.13;4.10;;;13.10;99.90;;;13.53;61.64;101943.25;4880206;28;97356;-56
2022/03/14 08:08:34;;;;;;;7.00;3.80;;;13.20;99.90;;;13.50;61.94;101953.94;4874027;28;96706;-55
2022/03/14 08:11:04;;;;;;;8.83;4.13;;;13.20;99.90;;;13.51;60.46;101961.88;4877719;28;96755;-55
2022/03/14 08:13:31;;;;;;;7.37;3.83;;;13.20;99.90;;;13.53;59.66;101964.47;4881012;28;97622;-54
2022/03/14 08:15:57;;;;;;;8.13;4.10;;;13.20;99.90;;;13.62;56.61;101969.53;4869030;28;97238;-56
2022/03/14 08:18:26;;;;;;;8.37;4.20;;;13.30;99.90;;;13.63;59.83;101976.56;4876355;28;97786;-54
2022/03/14 08:20:57;;;;;;;6.50;4.10;;;13.30;99.90;;;13.69;58.97;101971.09;4876913;28;97342;-57
2022/03/14 08:23:23;;;;;;;7.47;3.93;;;13.30;99.90;;;13.78;59.25;101973.50;4872330;28;102155;-53
2022/03/14 08:25:49;;;;;;;8.57;3.67;;;13.40;99.90;;;13.84;56.21;101975.97;4893845;28;97503;-55
2022/03/14 08:28:16;;;;;;;6.40;3.77;;;13.50;99.90;;;13.88;58.40;101982.91;4872081;28;116440;-57
2022/03/14 08:30:42;;;;;;;5.37;3.70;;;13.50;99.90;;;13.86;58.48;101982.09;4868263;28;107225;-53
2022/03/14 08:33:12;;;;;;;8.60;4.20;;;13.60;99.90;;;13.86;57.16;101983.88;4861825;28;99889;-52
2022/03/14 08:35:38;;;;;;;7.97;3.77;;;13.60;99.90;;;13.89;58.17;101978.50;4880781;28;98231;-56
2022/03/14 08:38:04;;;;;;;7.27;3.90;;;13.60;99.90;;;13.97;56.72;101984.44;4869806;28;112179;-54
2022/03/14 08:40:34;;;;;;;8.70;4.37;;;13.60;99.90;;;13.97;58.14;101990.63;4891576;28;96941;-56
2022/03/14 08:43:00;;;;;;;6.50;3.90;;;13.60;99.90;;;14.02;54.66;101994.91;4864245;28;96768;-52
2022/03/14 08:45:26;;;;;;;6.93;3.80;;;13.70;99.90;;;14.07;57.44;102003.63;4869722;28;97837;-56
2022/03/14 08:48:05;;;;;;;7.97;3.53;;;13.80;99.90;;;14.01;57.74;101999.34;4882634;28;96830;-55
2022/03/14 08:50:32;;;;;;;8.83;3.67;;;13.70;99.90;;;13.98;58.13;102010.06;4874281;28;97673;-55
2022/03/14 08:52:58;;;;;;;9.83;3.70;;;13.70;99.90;;;13.99;55.86;102023.28;4877729;28;99202;-52
2022/03/14 08:55:25;;;;;;;7.97;3.50;;;13.70;99.90;;;14.00;57.23;102021.47;4881093;28;97275;-52
2022/03/14 08:57:50;;;;;;;11.53;3.87;;;13.70;99.90;;;14.06;58.37;102025.75;4878372;28;97078;-55
2022/03/14 09:00:17;;;;;;;6.63;3.30;;;13.80;99.90;;;14.05;55.96;102022.25;4857160;28;98507;-54
2022/03/14 09:02:44;;;;;;;9.83;3.30;;;13.70;99.90;;;14.08;56.77;102037.19;4866599;28;97046;-57
2022/03/14 09:05:10;;;;;;;7.13;3.60;;;13.70;99.90;;;14.30;50.35;102030.34;4878881;28;116890;-57
2022/03/14 09:07:36;;;;;;;7.80;3.60;;;14.00;99.90;;;14.50;50.30;102035.97;4880406;28;96714;-56
2022/03/14 09:10:09;;;;;;;9.30;3.60;;;14.30;99.90;;;14.52;55.46;102036.81;4872177;28;97170;-57
2022/03/14 09:12:38;;;;;;;4.10;2.80;;;14.40;99.90;;;14.64;49.98;102037.34;4872525;28;101172;-55
2022/03/14 09:15:10;;;;;;;9.40;3.80;;;14.40;99.90;;;14.79;53.79;102043.06;4870317;28;103473;-54
2022/03/14 09:17:51;;;;;;;6.40;3.50;;;14.60;99.90;;;14.73;54.23;102047.66;4881918;28;97027;-55
2022/03/14 09:20:19;;;;;;;5.70;3.30;;;14.50;99.90;;;14.55;54.16;102047.31;4867296;28;96979;-56
2022/03/14 09:22:46;;;;;;;8.80;3.33;;;14.30;99.90;;;14.56;54.82;102049.06;4881579;28;97528;-57
2022/03/14 09:25:20;;;;;;;8.53;3.80;;;14.20;99.90;;;14.59;55.09;102059.59;4890411;28;97288;-54
2022/03/14 09:27:48;;;;;;;10.37;4.20;;;14.20;99.90;;;14.48;51.53;102053.75;4877515;28;96944;-54
2022/03/14 09:30:17;;;;;;;10.00;4.80;;;14.10;99.90;;;14.47;54.00;102059.09;4866680;28;97100;-56
2022/03/14 09:32:43;;;;;;;6.27;3.40;;;14.20;99.90;;;14.56;49.34;102062.34;4871782;28;97477;-52
2022/03/14 09:35:11;;;;;;;4.13;2.60;;;14.20;99.90;;;14.74;50.38;102070.66;4853631;28;98404;-55
2022/03/14 09:37:39;;;;;;;5.00;4.07;;;14.60;99.90;;;14.86;48.66;102070.28;4864430;28;97023;-55
2022/03/14 09:40:19;;;;;;;7.43;3.90;;;14.80;99.90;;;15.05;48.39;102075.91;4859322;28;96648;-52
2022/03/14 09:42:50;;;;;;;4.47;3.20;;;15.00;99.90;;;15.22;47.68;102080.69;4874778;28;97473;-55
2022/03/14 09:45:18;;;;;;;5.20;3.30;;;15.20;98.90;;;15.25;49.78;102088.53;4879220;28;96816;-56
2022/03/14 09:47:47;;;;;;;5.80;3.17;;;15.20;99.90;;;15.33;47.86;102075.84;4886582;28;97021;-51
2022/03/14 09:50:45;;;;;;;8.77;2.70;;;15.30;98.70;;;15.41;46.82;102087.13;4871599;28;97434;-55
2022/03/14 09:53:15;;;;;;;5.37;3.10;;;15.40;98.20;;;15.49;45.84;102087.75;4870641;28;97716;-52
2022/03/14 09:55:46;;;;;;;2.93;1.80;;;15.50;97.60;;;15.46;47.23;102099.34;4866682;28;96744;-55
2022/03/14 09:58:19;;;;;;;4.67;2.20;;;15.50;98.10;;;15.46;46.14;102103.78;4877961;28;97449;-53
2022/03/14 10:00:55;;;;;;;4.43;2.20;;;15.50;97.40;;;15.61;45.74;102107.75;4879165;28;97288;-52
2022/03/14 10:03:37;;;;;;;4.37;2.40;;;15.60;97.40;;;15.70;45.55;102105.66;4822293;28;101565;-59
2022/03/14 10:06:03;;;;;;;3.93;2.60;;;15.80;96.90;;;15.66;48.62;102109.34;4804905;28;103812;-54
2022/03/14 10:08:33;;;;;;;6.33;2.03;;;15.80;98.30;;;15.68;47.57;102110.16;4869338;28;98566;-56
2022/03/14 10:10:59;;;;;;;5.20;2.77;;;15.70;98.90;;;15.69;46.72;102113.69;4866822;28;97744;-52